sensor_id;sensor_type;location;lat;lon;timestamp;P1;P2;P0
73565;PMS5003;61846;52.970;-3.168;2023-07-24T00:00:56;0;0;
73565;PMS5003;61846;52.970;-3.168;2023-07-24T00:03:21;0;0;
73565;PMS5003;61846;52.970;-3.168;2023-07-24T00:05:52;1;1;
73565;PMS5003;61846;52.970;-3.168;2023-07-24T00:08:12;0;0;
73565;PMS5003;61846;52.970;-3.168;2023-07-24T00:10:38;0;0;
73565;PMS5003;61846;52.970;-3.168;2023-07-24T00:13:03;0;0;
73565;PMS5003;61846;52.970;-3.168;2023-07-24T00:15:29;0;0;
73565;PMS5003;61846;52.970;-3.168;2023-07-24T00:17:54;0;0;
73565;PMS5003;61846;52.970;-3.168;2023-07-24T00:20:20;0;0;
73565;PMS5003;61846;52.970;-3.168;2023-07-24T00:22:45;0;0;
73565;PMS5003;61846;52.970;-3.168;2023-07-24T00:25:11;0;0;
73565;PMS5003;61846;52.970;-3.168;2023-07-24T00:27:36;0;0;
73565;PMS5003;61846;52.970;-3.168;2023-07-24T00:30:02;0;0;
73565;PMS5003;61846;52.970;-3.168;2023-07-24T00:32:27;0;0;
73565;PMS5003;61846;52.970;-3.168;2023-07-24T00:34:52;0;0;
73565;PMS5003;61846;52.970;-3.168;2023-07-24T00:37:18;0;0;
73565;PMS5003;61846;52.970;-3.168;2023-07-24T00:39:44;0;0;
73565;PMS5003;61846;52.970;-3.168;2023-07-24T00:42:09;0;0;
73565;PMS5003;61846;52.970;-3.168;2023-07-24T00:44:35;2;0;
73565;PMS5003;61846;52.970;-3.168;2023-07-24T00:47:00;0;0;
73565;PMS5003;61846;52.970;-3.168;2023-07-24T00:49:25;0;0;
73565;PMS5003;61846;52.970;-3.168;2023-07-24T00:51:51;1;1;
73565;PMS5003;61846;52.970;-3.168;2023-07-24T00:54:16;0;0;
73565;PMS5003;61846;52.970;-3.168;2023-07-24T00:56:42;0;0;
73565;PMS5003;61846;52.970;-3.168;2023-07-24T00:59:07;1;0;
73565;PMS5003;61846;52.970;-3.168;2023-07-24T01:01:33;1;1;
73565;PMS5003;61846;52.970;-3.168;2023-07-24T01:03:58;1;1;
73565;PMS5003;61846;52.970;-3.168;2023-07-24T01:06:24;1;1;
73565;PMS5003;61846;52.970;-3.168;2023-07-24T01:08:49;0;0;
73565;PMS5003;61846;52.970;-3.168;2023-07-24T01:11:15;1;1;
73565;PMS5003;61846;52.970;-3.168;2023-07-24T01:13:42;1;1;
73565;PMS5003;61846;52.970;-3.168;2023-07-24T01:16:07;2;1;
73565;PMS5003;61846;52.970;-3.168;2023-07-24T01:18:31;1;1;
73565;PMS5003;61846;52.970;-3.168;2023-07-24T01:20:57;1;1;
73565;PMS5003;61846;52.970;-3.168;2023-07-24T01:23:23;1;0;
73565;PMS5003;61846;52.970;-3.168;2023-07-24T01:25:53;1;1;
73565;PMS5003;61846;52.970;-3.168;2023-07-24T01:28:13;1;1;
73565;PMS5003;61846;52.970;-3.168;2023-07-24T01:30:38;1;1;
73565;PMS5003;61846;52.970;-3.168;2023-07-24T01:33:04;2;2;
73565;PMS5003;61846;52.970;-3.168;2023-07-24T01:35:29;2;2;
73565;PMS5003;61846;52.970;-3.168;2023-07-24T01:37:55;0;0;
73565;PMS5003;61846;52.970;-3.168;2023-07-24T01:40:20;0;0;
73565;PMS5003;61846;52.970;-3.168;2023-07-24T01:42:46;1;0;
73565;PMS5003;61846;52.970;-3.168;2023-07-24T01:45:11;0;0;
73565;PMS5003;61846;52.970;-3.168;2023-07-24T01:47:37;1;1;
73565;PMS5003;61846;52.970;-3.168;2023-07-24T01:50:03;1;0;
73565;PMS5003;61846;52.970;-3.168;2023-07-24T01:52:28;1;1;
73565;PMS5003;61846;52.970;-3.168;2023-07-24T01:54:53;1;0;
73565;PMS5003;61846;52.970;-3.168;2023-07-24T01:57:19;0;0;
73565;PMS5003;61846;52.970;-3.168;2023-07-24T01:59:44;1;1;
73565;PMS5003;61846;52.970;-3.168;2023-07-24T02:02:10;3;1;
73565;PMS5003;61846;52.970;-3.168;2023-07-24T02:04:35;1;1;
73565;PMS5003;61846;52.970;-3.168;2023-07-24T02:07:01;2;2;
73565;PMS5003;61846;52.970;-3.168;2023-07-24T02:09:26;1;1;
73565;PMS5003;61846;52.970;-3.168;2023-07-24T02:11:52;0;0;
73565;PMS5003;61846;52.970;-3.168;2023-07-24T02:14:17;2;2;
73565;PMS5003;61846;52.970;-3.168;2023-07-24T02:16:43;1;1;
73565;PMS5003;61846;52.970;-3.168;2023-07-24T02:19:08;3;3;
73565;PMS5003;61846;52.970;-3.168;2023-07-24T02:21:33;1;1;
73565;PMS5003;61846;52.970;-3.168;2023-07-24T02:23:59;1;1;
73565;PMS5003;61846;52.970;-3.168;2023-07-24T02:26:25;3;2;
73565;PMS5003;61846;52.970;-3.168;2023-07-24T02:28:50;3;3;
73565;PMS5003;61846;52.970;-3.168;2023-07-24T02:31:15;2;2;
73565;PMS5003;61846;52.970;-3.168;2023-07-24T02:33:41;2;2;
73565;PMS5003;61846;52.970;-3.168;2023-07-24T02:36:07;3;3;
73565;PMS5003;61846;52.970;-3.168;2023-07-24T02:38:32;3;2;
73565;PMS5003;61846;52.970;-3.168;2023-07-24T02:40:57;2;2;
73565;PMS5003;61846;52.970;-3.168;2023-07-24T02:43:23;3;3;
73565;PMS5003;61846;52.970;-3.168;2023-07-24T02:45:48;4;2;
73565;PMS5003;61846;52.970;-3.168;2023-07-24T02:48:14;4;4;
73565;PMS5003;61846;52.970;-3.168;2023-07-24T02:50:39;3;3;
73565;PMS5003;61846;52.970;-3.168;2023-07-24T02:53:05;3;3;
73565;PMS5003;61846;52.970;-3.168;2023-07-24T02:55:30;2;2;
73565;PMS5003;61846;52.970;-3.168;2023-07-24T02:57:56;4;3;
73565;PMS5003;61846;52.970;-3.168;2023-07-24T03:00:21;4;4;
73565;PMS5003;61846;52.970;-3.168;2023-07-24T03:02:47;3;3;
73565;PMS5003;61846;52.970;-3.168;2023-07-24T03:05:12;3;3;
73565;PMS5003;61846;52.970;-3.168;2023-07-24T03:07:38;4;4;
73565;PMS5003;61846;52.970;-3.168;2023-07-24T03:10:03;5;3;
73565;PMS5003;61846;52.970;-3.168;2023-07-24T03:12:29;5;5;
73565;PMS5003;61846;52.970;-3.168;2023-07-24T03:14:54;4;4;
73565;PMS5003;61846;52.970;-3.168;2023-07-24T03:17:20;7;7;
73565;PMS5003;61846;52.970;-3.168;2023-07-24T03:19:45;7;7;
73565;PMS5003;61846;52.970;-3.168;2023-07-24T03:22:11;7;7;
73565;PMS5003;61846;52.970;-3.168;2023-07-24T03:24:36;7;6;
73565;PMS5003;61846;52.970;-3.168;2023-07-24T03:27:02;9;8;
73565;PMS5003;61846;52.970;-3.168;2023-07-24T03:29:27;11;11;
73565;PMS5003;61846;52.970;-3.168;2023-07-24T03:31:53;7;7;
73565;PMS5003;61846;52.970;-3.168;2023-07-24T03:34:18;9;9;
73565;PMS5003;61846;52.970;-3.168;2023-07-24T03:36:44;9;9;
73565;PMS5003;61846;52.970;-3.168;2023-07-24T03:39:09;11;10;
73565;PMS5003;61846;52.970;-3.168;2023-07-24T03:41:34;10;9;
73565;PMS5003;61846;52.970;-3.168;2023-07-24T03:44:00;10;10;
73565;PMS5003;61846;52.970;-3.168;2023-07-24T03:46:25;8;8;
73565;PMS5003;61846;52.970;-3.168;2023-07-24T03:48:51;8;8;
73565;PMS5003;61846;52.970;-3.168;2023-07-24T03:51:16;15;9;
73565;PMS5003;61846;52.970;-3.168;2023-07-24T03:53:42;9;9;
73565;PMS5003;61846;52.970;-3.168;2023-07-24T03:56:07;10;10;
73565;PMS5003;61846;52.970;-3.168;2023-07-24T03:58:32;10;10;
73565;PMS5003;61846;52.970;-3.168;2023-07-24T04:00:58;9;9;
73565;PMS5003;61846;52.970;-3.168;2023-07-24T04:03:23;7;7;
73565;PMS5003;61846;52.970;-3.168;2023-07-24T04:05:48;17;12;
73565;PMS5003;61846;52.970;-3.168;2023-07-24T04:08:14;11;10;
73565;PMS5003;61846;52.970;-3.168;2023-07-24T04:10:40;7;7;
73565;PMS5003;61846;52.970;-3.168;2023-07-24T04:13:05;9;9;
73565;PMS5003;61846;52.970;-3.168;2023-07-24T04:15:30;7;7;
73565;PMS5003;61846;52.970;-3.168;2023-07-24T04:17:56;6;6;
73565;PMS5003;61846;52.970;-3.168;2023-07-24T04:20:21;8;7;
73565;PMS5003;61846;52.970;-3.168;2023-07-24T04:22:47;7;7;
73565;PMS5003;61846;52.970;-3.168;2023-07-24T04:25:12;6;6;
73565;PMS5003;61846;52.970;-3.168;2023-07-24T04:27:38;5;5;
73565;PMS5003;61846;52.970;-3.168;2023-07-24T04:30:04;7;7;
73565;PMS5003;61846;52.970;-3.168;2023-07-24T04:32:28;7;7;
73565;PMS5003;61846;52.970;-3.168;2023-07-24T04:34:54;5;5;
73565;PMS5003;61846;52.970;-3.168;2023-07-24T04:37:19;3;3;
73565;PMS5003;61846;52.970;-3.168;2023-07-24T04:39:45;5;5;
73565;PMS5003;61846;52.970;-3.168;2023-07-24T04:42:10;4;4;
73565;PMS5003;61846;52.970;-3.168;2023-07-24T04:44:36;4;4;
73565;PMS5003;61846;52.970;-3.168;2023-07-24T04:47:01;5;5;
73565;PMS5003;61846;52.970;-3.168;2023-07-24T04:49:28;6;4;
73565;PMS5003;61846;52.970;-3.168;2023-07-24T04:51:52;6;5;
73565;PMS5003;61846;52.970;-3.168;2023-07-24T04:54:17;6;3;
73565;PMS5003;61846;52.970;-3.168;2023-07-24T04:56:43;2;2;
73565;PMS5003;61846;52.970;-3.168;2023-07-24T04:59:08;2;2;
73565;PMS5003;61846;52.970;-3.168;2023-07-24T05:01:34;5;3;
73565;PMS5003;61846;52.970;-3.168;2023-07-24T05:04:00;5;5;
73565;PMS5003;61846;52.970;-3.168;2023-07-24T05:06:25;7;5;
73565;PMS5003;61846;52.970;-3.168;2023-07-24T05:08:51;5;5;
73565;PMS5003;61846;52.970;-3.168;2023-07-24T05:11:15;2;2;
73565;PMS5003;61846;52.970;-3.168;2023-07-24T05:13:41;6;6;
73565;PMS5003;61846;52.970;-3.168;2023-07-24T05:16:06;6;6;
73565;PMS5003;61846;52.970;-3.168;2023-07-24T05:18:32;3;3;
73565;PMS5003;61846;52.970;-3.168;2023-07-24T05:20:57;5;5;
73565;PMS5003;61846;52.970;-3.168;2023-07-24T05:23:23;5;5;
73565;PMS5003;61846;52.970;-3.168;2023-07-24T05:28:14;4;4;
73565;PMS5003;61846;52.970;-3.168;2023-07-24T05:30:39;4;4;
73565;PMS5003;61846;52.970;-3.168;2023-07-24T05:33:05;4;4;
73565;PMS5003;61846;52.970;-3.168;2023-07-24T05:35:30;4;4;
73565;PMS5003;61846;52.970;-3.168;2023-07-24T05:37:55;8;4;
73565;PMS5003;61846;52.970;-3.168;2023-07-24T05:40:21;6;5;
73565;PMS5003;61846;52.970;-3.168;2023-07-24T05:42:46;4;4;
73565;PMS5003;61846;52.970;-3.168;2023-07-24T05:45:11;5;5;
73565;PMS5003;61846;52.970;-3.168;2023-07-24T05:47:37;3;3;
73565;PMS5003;61846;52.970;-3.168;2023-07-24T05:50:03;3;3;
73565;PMS5003;61846;52.970;-3.168;2023-07-24T05:52:28;5;5;
73565;PMS5003;61846;52.970;-3.168;2023-07-24T05:54:53;6;6;
73565;PMS5003;61846;52.970;-3.168;2023-07-24T05:57:19;3;3;
73565;PMS5003;61846;52.970;-3.168;2023-07-24T05:59:44;4;4;
73565;PMS5003;61846;52.970;-3.168;2023-07-24T06:02:10;8;5;
73565;PMS5003;61846;52.970;-3.168;2023-07-24T06:04:36;3;3;
73565;PMS5003;61846;52.970;-3.168;2023-07-24T06:07:01;3;3;
73565;PMS5003;61846;52.970;-3.168;2023-07-24T06:09:26;2;2;
73565;PMS5003;61846;52.970;-3.168;2023-07-24T06:11:52;4;4;
73565;PMS5003;61846;52.970;-3.168;2023-07-24T06:14:17;6;5;
73565;PMS5003;61846;52.970;-3.168;2023-07-24T06:16:43;5;3;
73565;PMS5003;61846;52.970;-3.168;2023-07-24T06:19:08;5;2;
73565;PMS5003;61846;52.970;-3.168;2023-07-24T06:21:33;4;2;
73565;PMS5003;61846;52.970;-3.168;2023-07-24T06:23:59;3;3;
73565;PMS5003;61846;52.970;-3.168;2023-07-24T06:26:24;5;5;
73565;PMS5003;61846;52.970;-3.168;2023-07-24T06:28:50;3;3;
73565;PMS5003;61846;52.970;-3.168;2023-07-24T06:31:15;4;3;
73565;PMS5003;61846;52.970;-3.168;2023-07-24T06:33:40;4;4;
73565;PMS5003;61846;52.970;-3.168;2023-07-24T06:36:08;4;3;
73565;PMS5003;61846;52.970;-3.168;2023-07-24T06:38:31;3;3;
73565;PMS5003;61846;52.970;-3.168;2023-07-24T06:40:57;4;4;
73565;PMS5003;61846;52.970;-3.168;2023-07-24T06:43:22;3;1;
73565;PMS5003;61846;52.970;-3.168;2023-07-24T06:45:48;5;4;
73565;PMS5003;61846;52.970;-3.168;2023-07-24T06:48:14;5;3;
73565;PMS5003;61846;52.970;-3.168;2023-07-24T06:50:39;4;4;
73565;PMS5003;61846;52.970;-3.168;2023-07-24T06:53:05;5;3;
73565;PMS5003;61846;52.970;-3.168;2023-07-24T06:55:30;6;4;
73565;PMS5003;61846;52.970;-3.168;2023-07-24T06:57:56;4;4;
73565;PMS5003;61846;52.970;-3.168;2023-07-24T07:00:21;3;3;
73565;PMS5003;61846;52.970;-3.168;2023-07-24T07:02:47;4;4;
73565;PMS5003;61846;52.970;-3.168;2023-07-24T07:05:12;3;3;
73565;PMS5003;61846;52.970;-3.168;2023-07-24T07:07:38;4;4;
73565;PMS5003;61846;52.970;-3.168;2023-07-24T07:10:03;4;3;
73565;PMS5003;61846;52.970;-3.168;2023-07-24T07:12:29;5;4;
73565;PMS5003;61846;52.970;-3.168;2023-07-24T07:14:54;3;3;
73565;PMS5003;61846;52.970;-3.168;2023-07-24T07:17:19;2;2;
73565;PMS5003;61846;52.970;-3.168;2023-07-24T07:19:45;4;4;
73565;PMS5003;61846;52.970;-3.168;2023-07-24T07:22:10;3;3;
73565;PMS5003;61846;52.970;-3.168;2023-07-24T07:24:35;6;4;
73565;PMS5003;61846;52.970;-3.168;2023-07-24T07:27:01;4;4;
73565;PMS5003;61846;52.970;-3.168;2023-07-24T07:29:26;3;3;
73565;PMS5003;61846;52.970;-3.168;2023-07-24T07:31:52;4;4;
73565;PMS5003;61846;52.970;-3.168;2023-07-24T07:34:17;2;2;
73565;PMS5003;61846;52.970;-3.168;2023-07-24T07:36:43;5;4;
73565;PMS5003;61846;52.970;-3.168;2023-07-24T07:39:08;5;2;
73565;PMS5003;61846;52.970;-3.168;2023-07-24T07:41:34;4;3;
73565;PMS5003;61846;52.970;-3.168;2023-07-24T07:43:59;2;2;
73565;PMS5003;61846;52.970;-3.168;2023-07-24T07:46:25;2;2;
73565;PMS5003;61846;52.970;-3.168;2023-07-24T07:48:50;6;3;
73565;PMS5003;61846;52.970;-3.168;2023-07-24T07:51:15;2;2;
73565;PMS5003;61846;52.970;-3.168;2023-07-24T07:53:41;1;1;
73565;PMS5003;61846;52.970;-3.168;2023-07-24T07:56:06;2;2;
73565;PMS5003;61846;52.970;-3.168;2023-07-24T07:58:31;7;3;
73565;PMS5003;61846;52.970;-3.168;2023-07-24T08:00:57;2;1;
73565;PMS5003;61846;52.970;-3.168;2023-07-24T08:03:22;2;2;
73565;PMS5003;61846;52.970;-3.168;2023-07-24T08:05:48;5;4;
73565;PMS5003;61846;52.970;-3.168;2023-07-24T08:08:13;1;1;
73565;PMS5003;61846;52.970;-3.168;2023-07-24T08:10:38;3;3;
73565;PMS5003;61846;52.970;-3.168;2023-07-24T08:13:04;1;1;
73565;PMS5003;61846;52.970;-3.168;2023-07-24T08:15:33;2;2;
73565;PMS5003;61846;52.970;-3.168;2023-07-24T08:17:55;4;3;
73565;PMS5003;61846;52.970;-3.168;2023-07-24T08:20:20;2;2;
73565;PMS5003;61846;52.970;-3.168;2023-07-24T08:22:45;3;2;
73565;PMS5003;61846;52.970;-3.168;2023-07-24T08:25:11;3;2;
73565;PMS5003;61846;52.970;-3.168;2023-07-24T08:27:37;2;2;
73565;PMS5003;61846;52.970;-3.168;2023-07-24T08:30:02;3;3;
73565;PMS5003;61846;52.970;-3.168;2023-07-24T08:32:27;3;3;
73565;PMS5003;61846;52.970;-3.168;2023-07-24T08:34:52;5;3;
73565;PMS5003;61846;52.970;-3.168;2023-07-24T08:37:18;3;2;
73565;PMS5003;61846;52.970;-3.168;2023-07-24T08:39:43;6;3;
73565;PMS5003;61846;52.970;-3.168;2023-07-24T08:42:09;2;2;
73565;PMS5003;61846;52.970;-3.168;2023-07-24T08:44:34;2;2;
73565;PMS5003;61846;52.970;-3.168;2023-07-24T08:46:59;2;2;
73565;PMS5003;61846;52.970;-3.168;2023-07-24T08:49:25;3;3;
73565;PMS5003;61846;52.970;-3.168;2023-07-24T08:51:50;2;2;
73565;PMS5003;61846;52.970;-3.168;2023-07-24T08:54:16;4;2;
73565;PMS5003;61846;52.970;-3.168;2023-07-24T08:56:41;3;3;
73565;PMS5003;61846;52.970;-3.168;2023-07-24T08:59:07;4;4;
73565;PMS5003;61846;52.970;-3.168;2023-07-24T09:01:32;1;1;
73565;PMS5003;61846;52.970;-3.168;2023-07-24T09:03:57;5;3;
73565;PMS5003;61846;52.970;-3.168;2023-07-24T09:06:23;5;2;
73565;PMS5003;61846;52.970;-3.168;2023-07-24T09:08:48;3;3;
73565;PMS5003;61846;52.970;-3.168;2023-07-24T09:11:13;5;4;
73565;PMS5003;61846;52.970;-3.168;2023-07-24T09:13:40;5;3;
73565;PMS5003;61846;52.970;-3.168;2023-07-24T09:16:04;5;3;
73565;PMS5003;61846;52.970;-3.168;2023-07-24T09:20:55;4;4;
73565;PMS5003;61846;52.970;-3.168;2023-07-24T09:23:25;4;2;
73565;PMS5003;61846;52.970;-3.168;2023-07-24T09:25:45;4;3;
73565;PMS5003;61846;52.970;-3.168;2023-07-24T09:28:11;2;2;
73565;PMS5003;61846;52.970;-3.168;2023-07-24T09:30:36;2;2;
73565;PMS5003;61846;52.970;-3.168;2023-07-24T09:33:01;2;2;
73565;PMS5003;61846;52.970;-3.168;2023-07-24T09:35:27;3;3;
73565;PMS5003;61846;52.970;-3.168;2023-07-24T09:40:17;7;5;
73565;PMS5003;61846;52.970;-3.168;2023-07-24T09:42:43;4;3;
73565;PMS5003;61846;52.970;-3.168;2023-07-24T09:45:09;4;2;
73565;PMS5003;61846;52.970;-3.168;2023-07-24T09:47:33;1;1;
73565;PMS5003;61846;52.970;-3.168;2023-07-24T09:49:59;2;2;
73565;PMS5003;61846;52.970;-3.168;2023-07-24T09:52:24;2;2;
73565;PMS5003;61846;52.970;-3.168;2023-07-24T09:54:53;11;3;
73565;PMS5003;61846;52.970;-3.168;2023-07-24T09:57:15;2;2;
73565;PMS5003;61846;52.970;-3.168;2023-07-24T09:59:40;1;1;
73565;PMS5003;61846;52.970;-3.168;2023-07-24T10:02:05;2;2;
73565;PMS5003;61846;52.970;-3.168;2023-07-24T10:04:31;1;1;
73565;PMS5003;61846;52.970;-3.168;2023-07-24T10:06:56;1;1;
73565;PMS5003;61846;52.970;-3.168;2023-07-24T10:09:21;1;1;
73565;PMS5003;61846;52.970;-3.168;2023-07-24T10:11:47;5;2;
73565;PMS5003;61846;52.970;-3.168;2023-07-24T10:14:12;3;3;
73565;PMS5003;61846;52.970;-3.168;2023-07-24T10:16:37;1;1;
73565;PMS5003;61846;52.970;-3.168;2023-07-24T10:19:12;2;1;
73565;PMS5003;61846;52.970;-3.168;2023-07-24T10:21:28;1;1;
73565;PMS5003;61846;52.970;-3.168;2023-07-24T10:23:59;2;1;
73565;PMS5003;61846;52.970;-3.168;2023-07-24T10:26:24;2;2;
73565;PMS5003;61846;52.970;-3.168;2023-07-24T10:28:46;2;2;
73565;PMS5003;61846;52.970;-3.168;2023-07-24T10:33:35;2;1;
73565;PMS5003;61846;52.970;-3.168;2023-07-24T10:36:04;2;2;
73565;PMS5003;61846;52.970;-3.168;2023-07-24T10:41:00;2;2;
73565;PMS5003;61846;52.970;-3.168;2023-07-24T10:43:17;3;2;
73565;PMS5003;61846;52.970;-3.168;2023-07-24T10:45:42;1;1;
73565;PMS5003;61846;52.970;-3.168;2023-07-24T10:48:07;2;2;
73565;PMS5003;61846;52.970;-3.168;2023-07-24T10:50:36;2;1;
73565;PMS5003;61846;52.970;-3.168;2023-07-24T10:52:57;5;4;
73565;PMS5003;61846;52.970;-3.168;2023-07-24T10:55:23;3;3;
73565;PMS5003;61846;52.970;-3.168;2023-07-24T10:57:49;2;2;
73565;PMS5003;61846;52.970;-3.168;2023-07-24T11:00:15;1;1;
73565;PMS5003;61846;52.970;-3.168;2023-07-24T11:02:39;1;1;
73565;PMS5003;61846;52.970;-3.168;2023-07-24T11:05:05;3;2;
73565;PMS5003;61846;52.970;-3.168;2023-07-24T11:07:32;1;1;
73565;PMS5003;61846;52.970;-3.168;2023-07-24T11:09:55;4;4;
73565;PMS5003;61846;52.970;-3.168;2023-07-24T11:12:21;2;2;
73565;PMS5003;61846;52.970;-3.168;2023-07-24T11:14:48;2;2;
73565;PMS5003;61846;52.970;-3.168;2023-07-24T11:17:11;2;2;
73565;PMS5003;61846;52.970;-3.168;2023-07-24T11:19:37;5;3;
73565;PMS5003;61846;52.970;-3.168;2023-07-24T11:22:02;4;2;
73565;PMS5003;61846;52.970;-3.168;2023-07-24T11:24:27;5;5;
73565;PMS5003;61846;52.970;-3.168;2023-07-24T11:26:53;1;1;
73565;PMS5003;61846;52.970;-3.168;2023-07-24T11:29:18;4;3;
73565;PMS5003;61846;52.970;-3.168;2023-07-24T11:31:44;1;1;
73565;PMS5003;61846;52.970;-3.168;2023-07-24T11:34:09;4;3;
73565;PMS5003;61846;52.970;-3.168;2023-07-24T11:36:34;4;3;
73565;PMS5003;61846;52.970;-3.168;2023-07-24T11:38:59;1;1;
73565;PMS5003;61846;52.970;-3.168;2023-07-24T11:41:25;2;2;
73565;PMS5003;61846;52.970;-3.168;2023-07-24T11:43:50;2;2;
73565;PMS5003;61846;52.970;-3.168;2023-07-24T11:46:22;2;2;
73565;PMS5003;61846;52.970;-3.168;2023-07-24T11:48:41;1;1;
73565;PMS5003;61846;52.970;-3.168;2023-07-24T11:51:06;4;4;
73565;PMS5003;61846;52.970;-3.168;2023-07-24T11:53:31;2;2;
73565;PMS5003;61846;52.970;-3.168;2023-07-24T11:55:58;1;1;
73565;PMS5003;61846;52.970;-3.168;2023-07-24T11:58:22;2;2;
73565;PMS5003;61846;52.970;-3.168;2023-07-24T12:00:48;4;2;
73565;PMS5003;61846;52.970;-3.168;2023-07-24T12:03:13;3;2;
73565;PMS5003;61846;52.970;-3.168;2023-07-24T12:05:38;2;2;
73565;PMS5003;61846;52.970;-3.168;2023-07-24T12:08:04;3;2;
73565;PMS5003;61846;52.970;-3.168;2023-07-24T12:10:29;2;2;
73565;PMS5003;61846;52.970;-3.168;2023-07-24T12:12:55;2;2;
73565;PMS5003;61846;52.970;-3.168;2023-07-24T12:15:20;3;3;
73565;PMS5003;61846;52.970;-3.168;2023-07-24T12:17:45;1;1;
73565;PMS5003;61846;52.970;-3.168;2023-07-24T12:20:10;1;1;
73565;PMS5003;61846;52.970;-3.168;2023-07-24T12:22:36;2;2;
73565;PMS5003;61846;52.970;-3.168;2023-07-24T12:25:01;3;3;
73565;PMS5003;61846;52.970;-3.168;2023-07-24T12:27:26;2;2;
73565;PMS5003;61846;52.970;-3.168;2023-07-24T12:29:51;3;3;
73565;PMS5003;61846;52.970;-3.168;2023-07-24T12:32:17;2;2;
73565;PMS5003;61846;52.970;-3.168;2023-07-24T12:34:43;4;2;
73565;PMS5003;61846;52.970;-3.168;2023-07-24T12:37:07;2;2;
73565;PMS5003;61846;52.970;-3.168;2023-07-24T12:39:33;3;2;
73565;PMS5003;61846;52.970;-3.168;2023-07-24T12:41:58;2;1;
73565;PMS5003;61846;52.970;-3.168;2023-07-24T12:44:24;3;3;
73565;PMS5003;61846;52.970;-3.168;2023-07-24T12:46:49;3;3;
73565;PMS5003;61846;52.970;-3.168;2023-07-24T12:49:14;3;3;
73565;PMS5003;61846;52.970;-3.168;2023-07-24T12:51:39;3;2;
73565;PMS5003;61846;52.970;-3.168;2023-07-24T12:54:05;2;2;
73565;PMS5003;61846;52.970;-3.168;2023-07-24T12:56:30;0;0;
73565;PMS5003;61846;52.970;-3.168;2023-07-24T12:58:56;2;2;
73565;PMS5003;61846;52.970;-3.168;2023-07-24T13:01:21;2;2;
73565;PMS5003;61846;52.970;-3.168;2023-07-24T13:03:46;1;1;
73565;PMS5003;61846;52.970;-3.168;2023-07-24T13:06:11;4;2;
73565;PMS5003;61846;52.970;-3.168;2023-07-24T13:08:41;2;2;
73565;PMS5003;61846;52.970;-3.168;2023-07-24T13:11:02;4;2;
73565;PMS5003;61846;52.970;-3.168;2023-07-24T13:13:27;3;3;
73565;PMS5003;61846;52.970;-3.168;2023-07-24T13:15:53;1;1;
73565;PMS5003;61846;52.970;-3.168;2023-07-24T13:18:18;1;1;
73565;PMS5003;61846;52.970;-3.168;2023-07-24T13:20:44;1;1;
73565;PMS5003;61846;52.970;-3.168;2023-07-24T13:23:09;2;2;
73565;PMS5003;61846;52.970;-3.168;2023-07-24T13:25:34;3;3;
73565;PMS5003;61846;52.970;-3.168;2023-07-24T13:27:59;2;2;
73565;PMS5003;61846;52.970;-3.168;2023-07-24T13:30:25;4;2;
73565;PMS5003;61846;52.970;-3.168;2023-07-24T13:32:50;2;2;
73565;PMS5003;61846;52.970;-3.168;2023-07-24T13:35:15;5;3;
73565;PMS5003;61846;52.970;-3.168;2023-07-24T13:37:40;2;2;
73565;PMS5003;61846;52.970;-3.168;2023-07-24T13:40:06;4;2;
73565;PMS5003;61846;52.970;-3.168;2023-07-24T13:42:31;1;1;
73565;PMS5003;61846;52.970;-3.168;2023-07-24T13:44:56;3;2;
73565;PMS5003;61846;52.970;-3.168;2023-07-24T13:47:22;1;1;
73565;PMS5003;61846;52.970;-3.168;2023-07-24T13:49:47;2;2;
73565;PMS5003;61846;52.970;-3.168;2023-07-24T13:52:12;1;0;
73565;PMS5003;61846;52.970;-3.168;2023-07-24T13:54:38;0;0;
73565;PMS5003;61846;52.970;-3.168;2023-07-24T13:57:03;2;1;
73565;PMS5003;61846;52.970;-3.168;2023-07-24T13:59:28;3;2;
73565;PMS5003;61846;52.970;-3.168;2023-07-24T14:01:54;0;0;
73565;PMS5003;61846;52.970;-3.168;2023-07-24T14:04:19;0;0;
73565;PMS5003;61846;52.970;-3.168;2023-07-24T14:06:44;1;1;
73565;PMS5003;61846;52.970;-3.168;2023-07-24T14:09:10;2;2;
73565;PMS5003;61846;52.970;-3.168;2023-07-24T14:11:35;0;0;
73565;PMS5003;61846;52.970;-3.168;2023-07-24T14:14:00;3;2;
73565;PMS5003;61846;52.970;-3.168;2023-07-24T14:16:25;1;1;
73565;PMS5003;61846;52.970;-3.168;2023-07-24T14:18:50;6;1;
73565;PMS5003;61846;52.970;-3.168;2023-07-24T14:21:16;1;1;
73565;PMS5003;61846;52.970;-3.168;2023-07-24T14:23:41;2;2;
73565;PMS5003;61846;52.970;-3.168;2023-07-24T14:26:06;2;2;
73565;PMS5003;61846;52.970;-3.168;2023-07-24T14:28:32;4;4;
73565;PMS5003;61846;52.970;-3.168;2023-07-24T14:30:57;2;2;
73565;PMS5003;61846;52.970;-3.168;2023-07-24T14:33:22;3;3;
73565;PMS5003;61846;52.970;-3.168;2023-07-24T14:35:48;1;1;
73565;PMS5003;61846;52.970;-3.168;2023-07-24T14:38:13;2;2;
73565;PMS5003;61846;52.970;-3.168;2023-07-24T14:40:38;1;1;
73565;PMS5003;61846;52.970;-3.168;2023-07-24T14:43:04;2;2;
73565;PMS5003;61846;52.970;-3.168;2023-07-24T14:45:29;1;1;
73565;PMS5003;61846;52.970;-3.168;2023-07-24T14:47:54;2;2;
73565;PMS5003;61846;52.970;-3.168;2023-07-24T14:50:20;3;2;
73565;PMS5003;61846;52.970;-3.168;2023-07-24T14:52:45;4;3;
73565;PMS5003;61846;52.970;-3.168;2023-07-24T14:55:10;1;1;
73565;PMS5003;61846;52.970;-3.168;2023-07-24T14:57:36;2;2;
73565;PMS5003;61846;52.970;-3.168;2023-07-24T15:00:01;2;2;
73565;PMS5003;61846;52.970;-3.168;2023-07-24T15:02:26;3;3;
73565;PMS5003;61846;52.970;-3.168;2023-07-24T15:04:52;0;0;
73565;PMS5003;61846;52.970;-3.168;2023-07-24T15:07:17;3;1;
73565;PMS5003;61846;52.970;-3.168;2023-07-24T15:09:43;3;3;
73565;PMS5003;61846;52.970;-3.168;2023-07-24T15:12:08;2;2;
73565;PMS5003;61846;52.970;-3.168;2023-07-24T15:14:33;2;2;
73565;PMS5003;61846;52.970;-3.168;2023-07-24T15:16:58;2;2;
73565;PMS5003;61846;52.970;-3.168;2023-07-24T15:19:24;1;1;
73565;PMS5003;61846;52.970;-3.168;2023-07-24T15:21:49;1;1;
73565;PMS5003;61846;52.970;-3.168;2023-07-24T15:24:14;2;2;
73565;PMS5003;61846;52.970;-3.168;2023-07-24T15:26:40;2;0;
73565;PMS5003;61846;52.970;-3.168;2023-07-24T15:29:05;4;2;
73565;PMS5003;61846;52.970;-3.168;2023-07-24T15:31:30;5;3;
73565;PMS5003;61846;52.970;-3.168;2023-07-24T15:33:56;1;1;
73565;PMS5003;61846;52.970;-3.168;2023-07-24T15:36:21;2;2;
73565;PMS5003;61846;52.970;-3.168;2023-07-24T15:38:46;1;1;
73565;PMS5003;61846;52.970;-3.168;2023-07-24T15:41:12;1;1;
73565;PMS5003;61846;52.970;-3.168;2023-07-24T15:43:37;2;2;
73565;PMS5003;61846;52.970;-3.168;2023-07-24T15:46:02;2;2;
73565;PMS5003;61846;52.970;-3.168;2023-07-24T15:48:28;2;2;
73565;PMS5003;61846;52.970;-3.168;2023-07-24T15:50:53;2;2;
73565;PMS5003;61846;52.970;-3.168;2023-07-24T15:53:18;4;4;
73565;PMS5003;61846;52.970;-3.168;2023-07-24T15:55:44;4;3;
73565;PMS5003;61846;52.970;-3.168;2023-07-24T15:58:09;3;3;
73565;PMS5003;61846;52.970;-3.168;2023-07-24T16:00:35;5;4;
73565;PMS5003;61846;52.970;-3.168;2023-07-24T16:03:00;1;1;
73565;PMS5003;61846;52.970;-3.168;2023-07-24T16:05:25;4;2;
73565;PMS5003;61846;52.970;-3.168;2023-07-24T16:07:50;2;2;
73565;PMS5003;61846;52.970;-3.168;2023-07-24T16:10:16;7;5;
73565;PMS5003;61846;52.970;-3.168;2023-07-24T16:12:41;2;2;
73565;PMS5003;61846;52.970;-3.168;2023-07-24T16:15:07;3;3;
73565;PMS5003;61846;52.970;-3.168;2023-07-24T16:17:32;10;4;
73565;PMS5003;61846;52.970;-3.168;2023-07-24T16:19:58;4;4;
73565;PMS5003;61846;52.970;-3.168;2023-07-24T16:22:23;2;2;
73565;PMS5003;61846;52.970;-3.168;2023-07-24T16:24:48;3;3;
73565;PMS5003;61846;52.970;-3.168;2023-07-24T16:27:14;2;2;
73565;PMS5003;61846;52.970;-3.168;2023-07-24T16:29:39;3;2;
73565;PMS5003;61846;52.970;-3.168;2023-07-24T16:32:05;2;2;